ZQL weather

Donaueschingen-Villingen Airport
Donaueschingen, Baden-W├╝rttemberg, Germany

Public forecast

Using degrees Celsius for public forecast. Weather courtesy of forecast.io.

Current aviation weather report (METAR) for Donaueschingen-Villingen Airport

Report is more than 6 hours old.

Retrieved 2019/11/18 09:00 UTC (2 months ago):

EDTD 180900Z 19004KT 140V260 CAVO 15/M00 Q1020

Aviation forecast (TAF) for Donaueschingen-Villingen Airport

Forecast is more than 12 hours old.

Retrieved 2013/07/18 06:45 UTC (7 years ago):

TAF TAF EDTD 180633Z 1806/1821 02008KT 9999 FEW040